地図

経路データ

SID SEASON NUMBER BASIN SUBBASIN NAME ISO_TIME NATURE LAT LON WMO_WIND WMO_PRES WMO_AGENCY TRACK_TYPE DIST2LAND LANDFALL IFLAG USA_AGENCY USA_ATCF_ID USA_LAT USA_LON USA_RECORD USA_STATUS USA_WIND USA_PRES USA_SSHS USA_R34_NE USA_R34_SE USA_R34_SW USA_R34_NW USA_R50_NE USA_R50_SE USA_R50_SW USA_R50_NW USA_R64_NE USA_R64_SE USA_R64_SW USA_R64_NW USA_POCI USA_ROCI USA_RMW USA_EYE TOKYO_LAT TOKYO_LON TOKYO_GRADE TOKYO_WIND TOKYO_PRES TOKYO_R50_DIR TOKYO_R50_LONG TOKYO_R50_SHORT TOKYO_R30_DIR TOKYO_R30_LONG TOKYO_R30_SHORT TOKYO_LAND CMA_LAT CMA_LON CMA_CAT CMA_WIND CMA_PRES HKO_LAT HKO_LON HKO_CAT HKO_WIND HKO_PRES NEWDELHI_LAT NEWDELHI_LON NEWDELHI_GRADE NEWDELHI_WIND NEWDELHI_PRES NEWDELHI_CI NEWDELHI_DP NEWDELHI_POCI REUNION_LAT REUNION_LON REUNION_TYPE REUNION_WIND REUNION_PRES REUNION_TNUM REUNION_CI REUNION_RMW REUNION_R34_NE REUNION_R34_SE REUNION_R34_SW REUNION_R34_NW REUNION_R50_NE REUNION_R50_SE REUNION_R50_SW REUNION_R50_NW REUNION_R64_NE REUNION_R64_SE REUNION_R64_SW REUNION_R64_NW BOM_LAT BOM_LON BOM_TYPE BOM_WIND BOM_PRES BOM_TNUM BOM_CI BOM_RMW BOM_R34_NE BOM_R34_SE BOM_R34_SW BOM_R34_NW BOM_R50_NE BOM_R50_SE BOM_R50_SW BOM_R50_NW BOM_R64_NE BOM_R64_SE BOM_R64_SW BOM_R64_NW BOM_ROCI BOM_POCI BOM_EYE BOM_POS_METHOD BOM_PRES_METHOD NADI_LAT NADI_LON NADI_CAT NADI_WIND NADI_PRES WELLINGTON_LAT WELLINGTON_LON WELLINGTON_WIND WELLINGTON_PRES DS824_LAT DS824_LON DS824_STAGE DS824_WIND DS824_PRES TD9636_LAT TD9636_LON TD9636_STAGE TD9636_WIND TD9636_PRES TD9635_LAT TD9635_LON TD9635_WIND TD9635_PRES TD9635_ROCI NEUMANN_LAT NEUMANN_LON NEUMANN_CLASS NEUMANN_WIND NEUMANN_PRES MLC_LAT MLC_LON MLC_CLASS MLC_WIND MLC_PRES USA_GUST BOM_GUST BOM_GUST_PER REUNION_GUST REUNION_GUST_PER USA_SEAHGT USA_SEARAD_NE USA_SEARAD_SE USA_SEARAD_SW USA_SEARAD_NW STORM_SPEED STORM_DIR
1927313S08071 1928 64 SI MM NOT_NAMED 1927-11-09 00:00:00 TS -7.90000 70.7000 main 1887 1887 _________O____ -1 -7.90000 70.7000 TC 25 7 260
1927313S08071 1928 64 SI MM NOT_NAMED 1927-11-09 03:00:00 TS -7.96256 70.3500 main 1915 1894 _________P____ -1 -7.96256 70.3500 TC 25 7 262
1927313S08071 1928 64 SI MM NOT_NAMED 1927-11-09 06:00:00 TS -8.00000 70.0000 main 1894 1871 _________O____ -1 -8.00000 70.0000 TC 25 7 267
1927313S08071 1928 64 SI MM NOT_NAMED 1927-11-09 09:00:00 TS -7.99997 69.6500 main 1864 1842 _________P____ -1 -7.99997 69.6500 TC 25 7 270
1927313S08071 1928 64 SI MM NOT_NAMED 1927-11-09 12:00:00 TS -8.00000 69.3000 main 1842 1820 _________O____ -1 -8.00000 69.3000 TC 25 7 266
1927313S08071 1928 64 SI MM NOT_NAMED 1927-11-09 15:00:00 TS -8.04995 68.9575 main 1820 1783 _________P____ -1 -8.04995 68.9575 TC 25 7 262
1927313S08071 1928 64 SI MM NOT_NAMED 1927-11-09 18:00:00 TS -8.10000 68.6000 main 1783 1755 _________O____ -1 -8.10000 68.6000 TC 25 8 266
1927313S08071 1928 64 SI MM NOT_NAMED 1927-11-09 21:00:00 TS -8.10750 68.2000 main 1755 1728 _________P____ -1 -8.10750 68.2000 TC 25 8 270
1927313S08071 1928 64 SI MM NOT_NAMED 1927-11-10 00:00:00 TS -8.10000 67.8000 main 1728 1708 _________O____ -1 -8.10000 67.8000 TC 25 7 271
1927313S08071 1928 64 SI MM NOT_NAMED 1927-11-10 03:00:00 TS -8.09243 67.4500 main 1701 1681 _________P____ -1 -8.09243 67.4500 TC 25 7 270
1927313S08071 1928 64 SI MM NOT_NAMED 1927-11-10 06:00:00 TS -8.10000 67.1000 main 1681 1656 _________O____ -1 -8.10000 67.1000 TC 25 8 266
1927313S08071 1928 64 SI MM NOT_NAMED 1927-11-10 09:00:00 TS -8.15009 66.6550 main 1647 1622 _________P____ -1 -8.15009 66.6550 TC 25 8 263
1927313S08071 1928 64 SI MM NOT_NAMED 1927-11-10 12:00:00 TS -8.20000 66.3000 main 1622 1616 _________O____ -1 -8.20000 66.3000 TC 25 5 264
1927313S08071 1928 64 SI MM NOT_NAMED 1927-11-10 15:00:00 TS -8.19993 66.1975 main 1616 1616 _________P____ -1 -8.19993 66.1975 TC 25 1 270
1927313S08071 1928 64 SI MM NOT_NAMED 1927-11-10 18:00:00 TS -8.20000 66.2000 main 1616 1616 _________O____ -1 -8.20000 66.2000 TC 25 1 137
1927313S08071 1928 64 SI MM NOT_NAMED 1927-11-10 21:00:00 TS -8.24985 66.2325 main 1616 1600 _________P____ -1 -8.24985 66.2325 TC 25 1 223
1927313S08071 1928 64 SI MM NOT_NAMED 1927-11-11 00:00:00 TS -8.30000 66.1000 main 1600 1570 _________O____ -1 -8.30000 66.1000 TC 25 6 266
1927313S08071 1928 64 SI MM NOT_NAMED 1927-11-11 03:00:00 TS -8.30016 65.5824 main 1570 1531 _________P____ -1 -8.30016 65.5824 TC 25 12 270
1927313S08071 1928 64 SI MM NOT_NAMED 1927-11-11 06:00:00 TS -8.30000 64.9000 main 1531 1499 _________O____ -1 -8.30000 64.9000 TC 25 13 268
1927313S08071 1928 64 SI MM NOT_NAMED 1927-11-11 09:00:00 TS -8.35008 64.2551 main 1489 1460 _________P____ -1 -8.35008 64.2551 TC 25 12 265
1927313S08071 1928 64 SI MM NOT_NAMED 1927-11-11 12:00:00 TS -8.40000 63.7000 main 1460 1446 _________O____ -1 -8.40000 63.7000 TC 25 9 267
1927313S08071 1928 64 SI MM NOT_NAMED 1927-11-11 15:00:00 TS -8.39984 63.3550 main 1446 1432 _________P____ -1 -8.39984 63.3550 TC 25 6 270
1927313S08071 1928 64 SI MM NOT_NAMED 1927-11-11 18:00:00 TS -8.40000 63.1000 main 1432 1420 _________O____ -1 -8.40000 63.1000 TC 25 6 265
1927313S08071 1928 64 SI MM NOT_NAMED 1927-11-11 21:00:00 TS -8.44999 62.7925 main 1420 1397 _________P____ -1 -8.44999 62.7925 TC 25 6 260
1927313S08071 1928 64 SI MM NOT_NAMED 1927-11-12 00:00:00 TS -8.50000 62.5000 main 1397 1389 _________O____ -1 -8.50000 62.5000 TC 25 5 265
1927313S08071 1928 64 SI MM NOT_NAMED 1927-11-12 03:00:00 TS -8.49997 62.2425 main 1385 1378 _________P____ -1 -8.49997 62.2425 TC 25 5 270
1927313S08071 1928 64 SI MM NOT_NAMED 1927-11-12 06:00:00 TS -8.50000 62.0000 main 1378 1371 _________O____ -1 -8.50000 62.0000 TC 25 5 265
1927313S08071 1928 64 SI MM NOT_NAMED 1927-11-12 09:00:00 TS -8.54247 61.7575 main 1371 1350 _________P____ -1 -8.54247 61.7575 TC 25 5 259
1927313S08071 1928 64 SI MM NOT_NAMED 1927-11-12 12:00:00 TS -8.60000 61.5000 main 1350 1329 _________O____ -1 -8.60000 61.5000 TC 25 6 259
1927313S08071 1928 64 SI MM NOT_NAMED 1927-11-12 15:00:00 TS -8.64999 61.2075 main 1329 1294 _________P____ -1 -8.64999 61.2075 TC 25 6 260
1927313S08071 1928 64 SI MM NOT_NAMED 1927-11-12 18:00:00 TS -8.70000 60.9000 main 1294 1259 _________O____ -1 -8.70000 60.9000 TC 25 6 260
1927313S08071 1928 64 SI MM NOT_NAMED 1927-11-12 21:00:00 TS -8.75752 60.5775 main 1259 1229 _________P____ -1 -8.75752 60.5775 TC 25 6 260
1927313S08071 1928 64 SI MM NOT_NAMED 1927-11-13 00:00:00 TS -8.80000 60.3000 main 1229 1209 _________O____ -1 -8.80000 60.3000 TC 25 4 263
1927313S08071 1928 64 SI MM NOT_NAMED 1927-11-13 03:00:00 TS -8.80745 60.1350 main 1209 1199 _________P____ -1 -8.80745 60.1350 TC 25 3 270
1927313S08071 1928 64 SI MM NOT_NAMED 1927-11-13 06:00:00 TS -8.80000 60.0000 main 1199 1179 _________O____ -1 -8.80000 60.0000 TC 25 3 271
1927313S08071 1928 64 SI MM NOT_NAMED 1927-11-13 09:00:00 TS -8.80000 59.8075 main 1179 1159 _________P____ -1 -8.80000 59.8075 TC 25 4 270
1927313S08071 1928 64 SI MM NOT_NAMED 1927-11-13 12:00:00 TS -8.80000 59.6000 main 1159 1139 _________O____ -1 -8.80000 59.6000 TC 25 4 271
1927313S08071 1928 64 SI MM NOT_NAMED 1927-11-13 15:00:00 TS -8.79249 59.4000 main 1139 1119 _________P____ -1 -8.79249 59.4000 TC 25 4 270
1927313S08071 1928 64 SI MM NOT_NAMED 1927-11-13 18:00:00 TS -8.80000 59.2000 main 1119 1099 _________O____ -1 -8.80000 59.2000 TC 25 4 263
1927313S08071 1928 64 SI MM NOT_NAMED 1927-11-13 21:00:00 TS -8.84002 59.0000 main 1099 1075 _________P____ -1 -8.84002 59.0000 TC 25 4 256
1927313S08071 1928 64 SI MM NOT_NAMED 1927-11-14 00:00:00 TS -8.90000 58.8000 main 1075 _________O____ -1 -8.90000 58.8000 TC 25 4 253

IBTrACS Databaseについて

本データベースは、米国NOAAが公開する1842年以降の世界の熱帯低気圧のベストトラックデータアーカイブInternational Best Track Archive for Climate Stewardship (IBTrACS)を、ウェブで閲覧しやすい形式に変換したものです。

最終更新日:2021-11-26